Time;durP1;ratioP1;P1;durP2;ratioP2;P2;SDS_P1;SDS_P2;PMS_P1;PMS_P2;Temp;Humidity;BMP_temperature;BMP_pressure;BME280_temperature;BME280_humidity;BME280_pressure;Samples;Min_cycle;Max_cycle;Signal;HPM_P1;HPM_P2
2021/11/28 00:20:39;;;;;;;6.45;4.90;;;;;;;;;;4359026;28;20419;-59
2021/11/28 00:23:05;;;;;;;6.37;4.03;;;;;;;;;;4224668;33;20093;-61
2021/11/28 00:25:31;;;;;;;6.90;4.20;;;;;;;;;;4218608;34;20193;-60
2021/11/28 00:27:57;;;;;;;7.75;5.03;;;;;;;;;;4219049;34;20116;-60
2021/11/28 00:30:25;;;;;;;5.72;4.07;;;;;;;;;;4205430;34;20090;-63
2021/11/28 00:32:51;;;;;;;6.78;4.70;;;;;;;;;;4205132;34;20120;-64
2021/11/28 00:35:17;;;;;;;7.25;4.62;;;;;;;;;;4205008;34;20232;-60
2021/11/28 00:37:43;;;;;;;6.15;4.82;;;;;;;;;;4212059;34;20109;-60
2021/11/28 00:40:09;;;;;;;6.40;5.32;;;;;;;;;;4218898;33;20210;-60
2021/11/28 00:42:35;;;;;;;5.65;5.03;;;;;;;;;;4218948;34;20540;-61
2021/11/28 00:45:03;;;;;;;7.15;5.70;;;;;;;;;;4218873;33;20137;-61
2021/11/28 00:47:29;;;;;;;9.05;6.60;;;;;;;;;;4219042;34;20136;-61
2021/11/28 00:52:43;;;;;;;9.32;6.93;;;;;;;;;;4210201;34;20139;-61
2021/11/28 00:55:10;;;;;;;10.02;7.32;;;;;;;;;;4209468;34;20554;-61
2021/11/28 00:57:37;;;;;;;8.43;6.80;;;;;;;;;;4204825;34;20145;-61
2021/11/28 01:00:05;;;;;;;11.57;6.43;;;;;;;;;;4204867;34;20117;-61
2021/11/28 01:02:32;;;;;;;13.35;8.20;;;;;;;;;;4204832;34;20124;-61
2021/11/28 01:04:58;;;;;;;12.52;8.70;;;;;;;;;;4191766;34;20117;-61
2021/11/28 01:07:27;;;;;;;9.50;7.93;;;;;;;;;;4191944;34;20125;-61
2021/11/28 01:09:54;;;;;;;9.82;7.75;;;;;;;;;;4204563;34;20213;-61
2021/11/28 01:12:21;;;;;;;11.40;8.32;;;;;;;;;;4204795;34;20117;-60
2021/11/28 01:14:48;;;;;;;11.85;8.70;;;;;;;;;;4204670;34;20537;-61
2021/11/28 01:17:14;;;;;;;12.63;8.70;;;;;;;;;;4191799;34;20082;-61
2021/11/28 01:19:41;;;;;;;13.77;9.13;;;;;;;;;;4204495;34;20509;-61
2021/11/28 01:22:13;;;;;;;14.98;9.55;;;;;;;;;;4217668;34;20104;-61
2021/11/28 01:24:39;;;;;;;13.73;9.23;;;;;;;;;;4218438;34;20174;-61
2021/11/28 01:27:07;;;;;;;14.02;9.40;;;;;;;;;;4218446;34;20137;-61
2021/11/28 01:29:33;;;;;;;14.57;9.60;;;;;;;;;;4205300;34;20105;-61
2021/11/28 01:32:01;;;;;;;15.88;10.38;;;;;;;;;;4218416;34;20209;-61
2021/11/28 01:34:29;;;;;;;18.98;10.70;;;;;;;;;;4205941;34;20117;-64
2021/11/28 01:36:55;;;;;;;12.40;9.05;;;;;;;;;;4218258;34;20125;-64
2021/11/28 01:39:21;;;;;;;13.52;9.77;;;;;;;;;;4218427;34;20544;-64
2021/11/28 01:41:48;;;;;;;15.45;9.45;;;;;;;;;;4218280;34;20104;-64
2021/11/28 01:44:14;;;;;;;13.57;9.57;;;;;;;;;;4218277;34;20121;-64
2021/11/28 01:46:40;;;;;;;14.30;9.10;;;;;;;;;;4218209;34;20132;-64
2021/11/28 01:49:08;;;;;;;12.45;9.05;;;;;;;;;;4218296;34;20200;-64
2021/11/28 01:51:34;;;;;;;15.48;8.85;;;;;;;;;;4218215;34;20497;-64
2021/11/28 01:54:01;;;;;;;13.62;9.07;;;;;;;;;;4205049;34;20121;-64
2021/11/28 01:56:27;;;;;;;16.87;9.23;;;;;;;;;;4218065;34;20501;-64
2021/11/28 01:58:53;;;;;;;15.07;8.95;;;;;;;;;;4218203;33;20098;-64
2021/11/28 02:01:21;;;;;;;18.42;9.68;;;;;;;;;;4218032;34;20172;-64
2021/11/28 02:03:47;;;;;;;14.95;8.90;;;;;;;;;;4220085;33;20137;-64
2021/11/28 02:06:16;;;;;;;13.62;9.35;;;;;;;;;;4222677;34;20188;-64
2021/11/28 02:08:43;;;;;;;14.25;9.35;;;;;;;;;;4209696;33;20185;-64
2021/11/28 02:11:10;;;;;;;14.73;9.18;;;;;;;;;;4222598;34;20137;-64
2021/11/28 02:13:36;;;;;;;13.55;8.77;;;;;;;;;;4222712;33;20538;-64
2021/11/28 02:16:03;;;;;;;15.52;9.73;;;;;;;;;;4222531;34;20120;-64
2021/11/28 02:18:29;;;;;;;12.70;8.85;;;;;;;;;;4222609;34;20114;-64
2021/11/28 02:20:58;;;;;;;11.25;8.32;;;;;;;;;;4209345;34;20174;-64
2021/11/28 02:23:24;;;;;;;13.25;8.63;;;;;;;;;;4222475;34;20209;-64
2021/11/28 02:25:55;;;;;;;12.23;8.20;;;;;;;;;;4222574;34;20127;-64
2021/11/28 02:28:21;;;;;;;12.93;9.00;;;;;;;;;;4222587;34;20141;-64
2021/11/28 02:30:47;;;;;;;14.35;9.27;;;;;;;;;;4222350;34;20137;-64
2021/11/28 02:33:14;;;;;;;13.98;8.35;;;;;;;;;;4222471;34;20133;-64
2021/11/28 02:35:40;;;;;;;10.63;7.93;;;;;;;;;;4209492;34;20097;-63
2021/11/28 02:38:07;;;;;;;11.77;8.02;;;;;;;;;;4222396;34;20473;-64
2021/11/28 02:40:34;;;;;;;14.32;8.60;;;;;;;;;;4222351;34;20510;-64
2021/11/28 02:43:01;;;;;;;11.90;8.10;;;;;;;;;;4222468;34;20090;-63
2021/11/28 02:45:28;;;;;;;11.52;7.90;;;;;;;;;;4222243;34;20117;-64
2021/11/28 02:47:56;;;;;;;13.98;8.00;;;;;;;;;;4222343;34;20117;-64
2021/11/28 02:50:23;;;;;;;11.63;7.07;;;;;;;;;;4222347;34;20101;-64
2021/11/28 02:52:54;;;;;;;12.25;7.70;;;;;;;;;;4222251;34;20129;-64
2021/11/28 02:55:26;;;;;;;11.12;7.68;;;;;;;;;;4221996;34;20133;-64
2021/11/28 02:57:53;;;;;;;12.55;7.70;;;;;;;;;;4222246;34;20113;-64
2021/11/28 03:00:20;;;;;;;10.18;7.37;;;;;;;;;;4222243;34;20101;-65
2021/11/28 03:02:46;;;;;;;11.43;7.45;;;;;;;;;;4209467;34;20125;-64
2021/11/28 03:05:12;;;;;;;13.13;7.07;;;;;;;;;;4222013;34;20129;-64
2021/11/28 03:07:39;;;;;;;10.85;7.15;;;;;;;;;;4222322;34;20113;-64
2021/11/28 03:10:07;;;;;;;8.77;6.60;;;;;;;;;;4208967;34;20151;-64
2021/11/28 03:12:33;;;;;;;11.88;6.97;;;;;;;;;;4221997;34;20465;-64
2021/11/28 03:14:59;;;;;;;11.40;7.07;;;;;;;;;;4208400;34;20129;-64
2021/11/28 03:17:25;;;;;;;13.10;7.18;;;;;;;;;;4219475;34;20185;-65
2021/11/28 03:19:51;;;;;;;11.18;6.65;;;;;;;;;;4219274;34;20157;-65
2021/11/28 03:22:17;;;;;;;12.80;7.68;;;;;;;;;;4219473;34;20113;-65
2021/11/28 03:24:43;;;;;;;13.10;7.32;;;;;;;;;;4219373;34;20145;-65
2021/11/28 03:27:09;;;;;;;12.93;6.90;;;;;;;;;;4219774;34;20086;-64
2021/11/28 03:29:35;;;;;;;8.35;6.40;;;;;;;;;;4219450;34;20119;-64
2021/11/28 03:32:01;;;;;;;13.13;7.37;;;;;;;;;;4219658;34;20200;-64
2021/11/28 03:34:27;;;;;;;11.90;6.68;;;;;;;;;;4219381;34;20609;-64
2021/11/28 03:36:58;;;;;;;11.60;6.62;;;;;;;;;;4219564;34;20114;-64
2021/11/28 03:39:27;;;;;;;12.55;7.10;;;;;;;;;;4219573;34;20120;-64
2021/11/28 03:41:59;;;;;;;10.98;6.37;;;;;;;;;;4219383;34;20119;-65
2021/11/28 03:44:26;;;;;;;11.02;6.32;;;;;;;;;;4219518;34;20240;-65
2021/11/28 03:46:53;;;;;;;12.75;7.10;;;;;;;;;;4219322;34;20526;-64
2021/11/28 03:49:19;;;;;;;11.38;6.57;;;;;;;;;;4219355;34;20530;-64
2021/11/28 03:51:45;;;;;;;9.75;6.35;;;;;;;;;;4219233;34;20116;-65
2021/11/28 03:54:11;;;;;;;8.27;5.95;;;;;;;;;;4219382;34;20118;-64
2021/11/28 03:56:37;;;;;;;9.30;5.87;;;;;;;;;;4219151;34;20113;-64
2021/11/28 03:59:04;;;;;;;9.45;5.50;;;;;;;;;;4219434;34;20585;-64
2021/11/28 04:01:30;;;;;;;12.70;5.87;;;;;;;;;;4219129;34;20201;-64
2021/11/28 04:03:56;;;;;;;9.38;5.87;;;;;;;;;;4219211;34;20192;-63
2021/11/28 04:06:22;;;;;;;8.40;5.12;;;;;;;;;;4219234;34;20102;-65
2021/11/28 04:08:50;;;;;;;10.82;5.57;;;;;;;;;;4206200;34;20122;-65
2021/11/28 04:11:17;;;;;;;9.75;4.93;;;;;;;;;;4219137;34;20108;-64
2021/11/28 04:13:43;;;;;;;12.77;5.22;;;;;;;;;;4219094;34;20127;-64
2021/11/28 04:16:11;;;;;;;8.10;5.22;;;;;;;;;;4219017;34;20120;-65
2021/11/28 04:18:39;;;;;;;11.12;4.80;;;;;;;;;;4218982;34;20537;-64
2021/11/28 04:21:05;;;;;;;7.15;4.45;;;;;;;;;;4218863;34;20189;-65
2021/11/28 04:23:31;;;;;;;7.25;4.70;;;;;;;;;;4218975;34;20097;-64
2021/11/28 04:25:57;;;;;;;8.38;4.97;;;;;;;;;;4218760;34;20102;-64
2021/11/28 04:28:23;;;;;;;8.55;4.80;;;;;;;;;;4218886;34;20101;-65
2021/11/28 04:30:49;;;;;;;10.57;5.07;;;;;;;;;;4218891;34;20108;-64
2021/11/28 04:33:16;;;;;;;5.50;4.40;;;;;;;;;;4218877;34;20181;-65
2021/11/28 04:35:43;;;;;;;10.52;4.32;;;;;;;;;;4218740;34;20134;-64
2021/11/28 04:38:09;;;;;;;8.23;4.53;;;;;;;;;;4206228;34;20514;-64
2021/11/28 04:40:36;;;;;;;6.35;4.07;;;;;;;;;;4218771;34;20196;-64
2021/11/28 04:43:02;;;;;;;6.40;4.80;;;;;;;;;;4218838;34;20105;-65
2021/11/28 04:45:28;;;;;;;11.05;4.40;;;;;;;;;;4218714;34;20512;-65
2021/11/28 04:47:54;;;;;;;8.43;4.28;;;;;;;;;;4218907;34;20144;-64
2021/11/28 04:50:20;;;;;;;8.82;4.62;;;;;;;;;;4206161;34;20119;-65
2021/11/28 04:52:46;;;;;;;4.90;3.45;;;;;;;;;;4219010;34;20117;-65
2021/11/28 04:55:13;;;;;;;5.55;4.15;;;;;;;;;;4218832;34;20109;-65
2021/11/28 04:57:39;;;;;;;7.82;4.40;;;;;;;;;;4218654;34;20092;-64
2021/11/28 05:00:17;;;;;;;6.47;3.85;;;;;;;;;;4218615;34;20101;-65
2021/11/28 05:02:43;;;;;;;5.90;3.72;;;;;;;;;;4218639;34;20090;-65
2021/11/28 05:05:10;;;;;;;8.45;4.35;;;;;;;;;;4206005;34;20097;-65
2021/11/28 05:07:36;;;;;;;8.05;4.15;;;;;;;;;;4218722;34;20119;-65
2021/11/28 05:10:03;;;;;;;6.50;4.15;;;;;;;;;;4218845;34;20113;-64
2021/11/28 05:12:29;;;;;;;8.32;4.22;;;;;;;;;;4205704;34;20102;-65
2021/11/28 05:14:55;;;;;;;9.38;6.18;;;;;;;;;;4218620;34;20606;-64
2021/11/28 05:17:21;;;;;;;9.40;4.20;;;;;;;;;;4218454;34;20108;-64
2021/11/28 05:19:48;;;;;;;6.55;3.97;;;;;;;;;;4218443;34;20126;-65
2021/11/28 05:22:14;;;;;;;5.82;4.28;;;;;;;;;;4218373;34;20108;-65
2021/11/28 05:24:40;;;;;;;9.50;3.90;;;;;;;;;;4205363;34;20101;-65
2021/11/28 05:27:06;;;;;;;9.07;3.80;;;;;;;;;;4218407;34;20129;-64
2021/11/28 05:29:32;;;;;;;6.25;3.20;;;;;;;;;;4218482;34;20122;-65
2021/11/28 05:31:58;;;;;;;6.12;3.20;;;;;;;;;;4218430;34;20108;-64
2021/11/28 05:34:24;;;;;;;8.75;3.70;;;;;;;;;;4218520;34;20114;-65
2021/11/28 05:36:50;;;;;;;6.00;3.35;;;;;;;;;;4218196;34;20119;-64
2021/11/28 05:39:16;;;;;;;6.75;3.35;;;;;;;;;;4217733;34;20129;-64
2021/11/28 05:41:43;;;;;;;7.65;4.03;;;;;;;;;;4218203;34;20126;-65
2021/11/28 05:44:10;;;;;;;7.95;3.40;;;;;;;;;;4218278;34;20490;-64
2021/11/28 05:46:36;;;;;;;5.03;3.70;;;;;;;;;;4205172;34;20140;-65
2021/11/28 05:49:02;;;;;;;5.12;3.80;;;;;;;;;;4218125;34;20105;-64
2021/11/28 05:51:28;;;;;;;8.60;4.22;;;;;;;;;;4218138;34;20221;-65
2021/11/28 05:53:54;;;;;;;5.18;3.40;;;;;;;;;;4218188;34;20141;-64
2021/11/28 05:56:21;;;;;;;4.22;3.22;;;;;;;;;;4217945;34;20107;-65
2021/11/28 05:58:47;;;;;;;6.47;3.97;;;;;;;;;;4217936;34;20221;-64
2021/11/28 06:01:13;;;;;;;5.03;2.95;;;;;;;;;;4218095;34;20101;-64
2021/11/28 06:03:39;;;;;;;6.68;4.40;;;;;;;;;;4217999;34;20097;-65
2021/11/28 06:06:05;;;;;;;8.32;3.50;;;;;;;;;;4218043;34;20494;-64
2021/11/28 06:08:31;;;;;;;8.48;3.28;;;;;;;;;;4217975;34;20132;-64
2021/11/28 06:10:57;;;;;;;6.50;2.83;;;;;;;;;;4218165;34;20625;-65
2021/11/28 06:13:23;;;;;;;5.03;2.75;;;;;;;;;;4217990;34;20102;-65
2021/11/28 06:15:49;;;;;;;6.07;3.15;;;;;;;;;;4204894;34;20105;-66
2021/11/28 06:18:15;;;;;;;5.00;2.90;;;;;;;;;;4204994;34;20110;-64
2021/11/28 06:20:41;;;;;;;8.85;3.50;;;;;;;;;;4217576;34;20533;-65
2021/11/28 06:23:07;;;;;;;5.47;3.20;;;;;;;;;;4217757;34;20114;-65
2021/11/28 06:25:33;;;;;;;8.07;4.05;;;;;;;;;;4217717;34;20113;-64
2021/11/28 06:27:59;;;;;;;5.15;2.78;;;;;;;;;;4217818;34;20113;-65
2021/11/28 06:30:26;;;;;;;6.25;3.37;;;;;;;;;;4217677;34;20208;-65
2021/11/28 06:32:52;;;;;;;11.27;2.85;;;;;;;;;;4217766;34;20212;-65
2021/11/28 06:35:18;;;;;;;5.95;3.17;;;;;;;;;;4217827;34;20112;-64
2021/11/28 06:37:46;;;;;;;11.02;3.33;;;;;;;;;;4217515;34;20554;-65
2021/11/28 06:40:12;;;;;;;8.20;3.20;;;;;;;;;;4217797;34;20093;-65
2021/11/28 06:42:38;;;;;;;5.70;2.75;;;;;;;;;;4217574;34;20514;-64
2021/11/28 06:45:05;;;;;;;7.20;3.08;;;;;;;;;;4217697;34;20423;-65
2021/11/28 06:47:31;;;;;;;8.18;3.30;;;;;;;;;;4204685;34;20217;-65
2021/11/28 06:49:57;;;;;;;6.68;3.10;;;;;;;;;;4218274;34;20135;-64
2021/11/28 06:52:23;;;;;;;9.32;3.12;;;;;;;;;;4219763;34;20129;-65
2021/11/28 06:54:49;;;;;;;5.93;3.17;;;;;;;;;;4219682;34;20120;-65
2021/11/28 06:57:15;;;;;;;4.87;3.30;;;;;;;;;;4219555;34;20128;-65
2021/11/28 06:59:42;;;;;;;6.03;3.03;;;;;;;;;;4206489;34;20598;-65
2021/11/28 07:02:09;;;;;;;5.55;3.08;;;;;;;;;;4219615;34;20546;-64
2021/11/28 07:04:35;;;;;;;8.77;2.90;;;;;;;;;;4219681;34;20473;-65
2021/11/28 07:07:01;;;;;;;7.75;3.40;;;;;;;;;;4219524;34;20125;-66
2021/11/28 07:09:27;;;;;;;8.73;4.10;;;;;;;;;;4219531;34;20121;-65
2021/11/28 07:11:53;;;;;;;8.95;5.35;;;;;;;;;;4219562;34;20113;-65
2021/11/28 07:14:20;;;;;;;8.40;3.85;;;;;;;;;;4219455;34;20116;-65
2021/11/28 07:16:46;;;;;;;7.18;3.47;;;;;;;;;;4219411;34;20494;-65
2021/11/28 07:19:12;;;;;;;8.55;3.50;;;;;;;;;;4219311;34;20453;-64
2021/11/28 07:21:38;;;;;;;8.98;3.90;;;;;;;;;;4219522;34;20101;-65
2021/11/28 07:24:04;;;;;;;10.30;4.12;;;;;;;;;;4219463;34;20119;-65
2021/11/28 07:26:30;;;;;;;7.68;3.62;;;;;;;;;;4219604;34;20114;-65
2021/11/28 07:28:56;;;;;;;11.12;3.30;;;;;;;;;;4219390;34;20120;-65
2021/11/28 07:31:22;;;;;;;8.85;3.30;;;;;;;;;;4206355;34;20544;-65
2021/11/28 07:33:48;;;;;;;10.75;4.53;;;;;;;;;;4219290;34;20209;-66
2021/11/28 07:36:14;;;;;;;20.88;10.88;;;;;;;;;;4219285;34;20576;-65
2021/11/28 07:38:40;;;;;;;9.77;5.05;;;;;;;;;;4219192;34;20121;-66
2021/11/28 07:41:06;;;;;;;8.00;3.80;;;;;;;;;;4219332;34;20113;-65
2021/11/28 07:43:33;;;;;;;7.62;3.47;;;;;;;;;;4219406;34;20473;-65
2021/11/28 07:46:01;;;;;;;9.40;3.03;;;;;;;;;;4219339;34;20132;-67
2021/11/28 07:48:27;;;;;;;5.62;2.67;;;;;;;;;;4194937;34;20188;-64
2021/11/28 07:50:53;;;;;;;7.07;2.80;;;;;;;;;;4219130;34;20117;-64
2021/11/28 07:53:19;;;;;;;11.52;3.35;;;;;;;;;;4194641;34;20119;-64
2021/11/28 07:55:45;;;;;;;8.82;3.92;;;;;;;;;;4218967;34;20204;-65
2021/11/28 07:58:12;;;;;;;8.90;3.92;;;;;;;;;;4219123;34;20478;-65
2021/11/28 08:00:39;;;;;;;5.12;2.85;;;;;;;;;;4218801;34;20117;-64
2021/11/28 08:03:04;;;;;;;7.97;3.10;;;;;;;;;;4218888;34;20098;-63
2021/11/28 08:05:31;;;;;;;4.45;2.58;;;;;;;;;;4218981;34;20113;-64
2021/11/28 08:07:58;;;;;;;4.55;2.62;;;;;;;;;;4219047;34;20114;-64
2021/11/28 08:10:24;;;;;;;3.95;2.80;;;;;;;;;;4219095;34;20097;-65
2021/11/28 08:12:50;;;;;;;3.33;2.22;;;;;;;;;;4218887;34;20120;-65
2021/11/28 08:15:18;;;;;;;5.03;3.03;;;;;;;;;;4205662;34;20186;-62
2021/11/28 08:17:48;;;;;;;8.82;3.25;;;;;;;;;;4203116;34;20144;-62
2021/11/28 08:20:16;;;;;;;6.30;4.15;;;;;;;;;;4204600;34;20201;-62
2021/11/28 08:22:43;;;;;;;5.70;3.60;;;;;;;;;;4193968;34;20181;-66
2021/11/28 08:25:11;;;;;;;5.97;3.53;;;;;;;;;;4194258;34;20109;-64
2021/11/28 08:27:38;;;;;;;4.47;3.22;;;;;;;;;;4194435;34;20137;-62
2021/11/28 08:30:11;;;;;;;5.57;3.42;;;;;;;;;;4218816;34;20201;-65
2021/11/28 08:32:39;;;;;;;6.60;3.25;;;;;;;;;;4218877;34;20183;-68
2021/11/28 08:35:07;;;;;;;3.97;2.80;;;;;;;;;;4183074;34;20105;-64
2021/11/28 08:37:34;;;;;;;4.55;2.72;;;;;;;;;;4219054;34;20122;-64
2021/11/28 08:40:02;;;;;;;6.28;3.87;;;;;;;;;;4205734;34;20498;-65
2021/11/28 08:42:32;;;;;;;6.93;4.28;;;;;;;;;;4205905;34;20097;-64
2021/11/28 08:45:02;;;;;;;3.50;2.80;;;;;;;;;;4219028;34;20569;-64
2021/11/28 08:47:28;;;;;;;6.65;3.12;;;;;;;;;;4206195;34;20208;-62
2021/11/28 08:49:55;;;;;;;5.87;3.20;;;;;;;;;;4218790;34;20972;-62
2021/11/28 08:52:21;;;;;;;3.33;2.80;;;;;;;;;;4205804;34;20121;-66
2021/11/28 08:54:47;;;;;;;5.28;3.65;;;;;;;;;;4182741;34;20212;-64
2021/11/28 08:57:13;;;;;;;6.03;3.35;;;;;;;;;;4218977;34;20129;-62
2021/11/28 08:59:43;;;;;;;4.12;3.60;;;;;;;;;;4205710;34;20121;-67
2021/11/28 09:02:10;;;;;;;4.80;3.75;;;;;;;;;;4206045;34;20101;-64
2021/11/28 09:04:38;;;;;;;5.62;4.20;;;;;;;;;;4206030;34;20527;-70
2021/11/28 09:07:05;;;;;;;5.10;4.20;;;;;;;;;;4205121;34;20903;-70
2021/11/28 09:09:32;;;;;;;8.85;4.70;;;;;;;;;;4205391;34;20137;-70
2021/11/28 09:11:58;;;;;;;5.43;3.17;;;;;;;;;;4202108;34;20111;-70
2021/11/28 09:14:26;;;;;;;3.15;2.78;;;;;;;;;;4215477;34;20145;-67
2021/11/28 09:16:52;;;;;;;5.78;2.78;;;;;;;;;;4218451;34;20556;-69
2021/11/28 09:19:26;;;;;;;8.52;3.65;;;;;;;;;;4205479;34;20542;-68
2021/11/28 09:21:54;;;;;;;8.70;4.37;;;;;;;;;;4218594;34;20108;-69
2021/11/28 09:24:36;;;;;;;5.80;4.12;;;;;;;;;;4218396;34;20201;-67
2021/11/28 09:27:06;;;;;;;8.20;5.82;;;;;;;;;;4194171;34;20086;-70
2021/11/28 09:29:38;;;;;;;10.48;7.00;;;;;;;;;;4205563;34;20118;-68
2021/11/28 09:32:05;;;;;;;9.70;6.47;;;;;;;;;;4219789;34;20548;-69
2021/11/28 09:34:36;;;;;;;12.15;6.68;;;;;;;;;;4218613;34;20173;-71
2021/11/28 09:37:11;;;;;;;12.13;6.03;;;;;;;;;;4194080;34;20124;-70
2021/11/28 09:39:42;;;;;;;10.55;5.97;;;;;;;;;;4218498;34;20238;-69
2021/11/28 09:42:09;;;;;;;5.10;3.50;;;;;;;;;;4200643;34;20310;-70
2021/11/28 09:44:38;;;;;;;8.60;3.83;;;;;;;;;;4213297;34;20136;-69
2021/11/28 09:47:09;;;;;;;5.62;3.55;;;;;;;;;;4202484;34;20121;-69
2021/11/28 09:49:36;;;;;;;9.15;5.32;;;;;;;;;;4215062;33;20594;-68
2021/11/28 09:52:06;;;;;;;9.02;4.60;;;;;;;;;;4193672;34;20093;-68
2021/11/28 09:54:36;;;;;;;9.35;5.22;;;;;;;;;;4191735;34;20222;-67
2021/11/28 09:57:03;;;;;;;9.80;6.47;;;;;;;;;;4213890;34;20093;-71
2021/11/28 09:59:29;;;;;;;11.23;5.68;;;;;;;;;;4217189;34;20089;-67
2021/11/28 10:01:56;;;;;;;13.13;7.07;;;;;;;;;;4205267;34;20115;-69
2021/11/28 10:04:22;;;;;;;8.40;5.07;;;;;;;;;;4216158;33;20118;-73
2021/11/28 10:06:48;;;;;;;10.88;6.45;;;;;;;;;;4214695;34;20114;-67
2021/11/28 10:09:16;;;;;;;7.93;4.90;;;;;;;;;;4217610;34;20117;-68
2021/11/28 10:11:42;;;;;;;7.20;4.43;;;;;;;;;;4217930;34;20113;-68
2021/11/28 10:14:09;;;;;;;5.18;3.87;;;;;;;;;;4204833;34;20101;-68
2021/11/28 10:16:36;;;;;;;6.00;3.12;;;;;;;;;;4218108;34;20454;-67
2021/11/28 10:19:03;;;;;;;4.47;2.62;;;;;;;;;;4217624;33;20098;-67
2021/11/28 10:21:32;;;;;;;4.90;3.03;;;;;;;;;;4218154;34;20104;-68
2021/11/28 10:24:12;;;;;;;5.75;2.95;;;;;;;;;;4217417;34;20093;-65
2021/11/28 10:27:19;;;;;;;5.00;2.90;;;;;;;;;;4218199;34;20106;-66
2021/11/28 10:29:46;;;;;;;3.72;2.45;;;;;;;;;;4218434;34;20114;-67
2021/11/28 10:32:13;;;;;;;6.00;2.95;;;;;;;;;;4219885;34;20117;-68
2021/11/28 10:34:44;;;;;;;8.00;2.62;;;;;;;;;;4219961;34;20118;-68
2021/11/28 10:37:18;;;;;;;5.22;2.70;;;;;;;;;;4206897;34;20122;-69
2021/11/28 10:39:54;;;;;;;6.25;4.20;;;;;;;;;;4207781;34;20094;-67
2021/11/28 10:42:33;;;;;;;6.37;4.03;;;;;;;;;;4220068;34;20108;-68
2021/11/28 10:45:20;;;;;;;5.55;3.40;;;;;;;;;;4219762;34;20220;-67
2021/11/28 10:47:53;;;;;;;4.82;2.87;;;;;;;;;;4219862;34;20200;-68
2021/11/28 10:50:29;;;;;;;5.60;3.12;;;;;;;;;;4219687;34;20192;-67
2021/11/28 10:53:06;;;;;;;4.95;2.58;;;;;;;;;;4219982;34;20129;-67
2021/11/28 10:55:39;;;;;;;2.40;2.00;;;;;;;;;;4219621;34;20502;-66
2021/11/28 10:58:09;;;;;;;6.25;2.92;;;;;;;;;;4206568;34;20118;-66
2021/11/28 11:00:38;;;;;;;4.55;2.58;;;;;;;;;;4219604;34;20152;-67
2021/11/28 11:03:23;;;;;;;4.80;2.03;;;;;;;;;;4219574;34;20127;-67
2021/11/28 11:05:51;;;;;;;3.17;2.43;;;;;;;;;;4217428;34;20196;-65
2021/11/28 11:08:23;;;;;;;4.80;2.40;;;;;;;;;;4217867;34;20517;-65
2021/11/28 11:11:05;;;;;;;7.45;3.42;;;;;;;;;;4218276;34;20517;-65
2021/11/28 11:13:31;;;;;;;4.70;2.92;;;;;;;;;;4219537;34;20222;-65
2021/11/28 11:15:57;;;;;;;4.30;2.42;;;;;;;;;;4219217;34;20628;-65
2021/11/28 11:18:23;;;;;;;3.97;2.30;;;;;;;;;;4219435;34;20129;-65
2021/11/28 11:20:52;;;;;;;6.00;3.60;;;;;;;;;;4219278;34;20223;-65
2021/11/28 11:23:41;;;;;;;5.15;2.83;;;;;;;;;;4206478;34;20124;-64
2021/11/28 11:26:11;;;;;;;6.78;3.78;;;;;;;;;;4219272;34;20097;-63
2021/11/28 11:29:08;;;;;;;7.87;3.78;;;;;;;;;;4219574;34;20124;-63
2021/11/28 11:31:34;;;;;;;;;;;;;;;;;;4219826;34;20128;-64
2021/11/28 11:34:00;;;;;;;4.50;2.90;;;;;;;;;;4219360;34;20396;-64
2021/11/28 11:37:00;;;;;;;4.22;2.97;;;;;;;;;;4218413;34;20118;-63
2021/11/28 11:39:28;;;;;;;4.43;2.75;;;;;;;;;;4206470;34;20102;-64
2021/11/28 11:41:55;;;;;;;5.12;2.30;;;;;;;;;;4219355;34;20928;-64
2021/11/28 11:44:25;;;;;;;5.07;2.45;;;;;;;;;;4219188;34;20109;-64
2021/11/28 11:46:52;;;;;;;4.35;2.85;;;;;;;;;;4219212;34;20546;-64
2021/11/28 11:49:19;;;;;;;4.80;2.83;;;;;;;;;;4206291;34;20514;-63
2021/11/28 11:51:47;;;;;;;3.55;2.10;;;;;;;;;;4219175;34;20105;-65
2021/11/28 11:54:31;;;;;;;7.05;2.47;;;;;;;;;;4206163;34;20135;-64
2021/11/28 11:57:14;;;;;;;8.02;2.83;;;;;;;;;;4206447;34;20129;-65
2021/11/28 12:00:05;;;;;;;5.10;2.12;;;;;;;;;;4219055;34;20968;-64
2021/11/28 12:02:40;;;;;;;5.15;2.60;;;;;;;;;;4219142;34;20102;-65
2021/11/28 12:05:24;;;;;;;4.45;2.20;;;;;;;;;;4206088;34;20128;-65
2021/11/28 12:07:59;;;;;;;11.70;6.65;;;;;;;;;;4219011;34;20117;-64
2021/11/28 12:10:36;;;;;;;6.62;2.90;;;;;;;;;;4205760;34;20613;-64
2021/11/28 12:13:08;;;;;;;5.20;2.60;;;;;;;;;;4204971;34;20092;-64
2021/11/28 12:15:39;;;;;;;4.65;4.03;;;;;;;;;;4205043;34;20121;-64
2021/11/28 12:18:06;;;;;;;5.75;2.67;;;;;;;;;;4205108;34;20147;-64
2021/11/28 12:20:44;;;;;;;4.55;2.20;;;;;;;;;;4204894;34;20189;-64
2021/11/28 12:23:45;;;;;;;3.72;2.40;;;;;;;;;;4205170;34;20113;-65
2021/11/28 12:26:29;;;;;;;5.40;2.30;;;;;;;;;;4204894;34;20125;-64
2021/11/28 12:28:56;;;;;;;3.37;1.95;;;;;;;;;;4205001;34;20224;-64
2021/11/28 12:31:27;;;;;;;5.45;2.40;;;;;;;;;;4204965;34;20105;-64
2021/11/28 12:33:53;;;;;;;4.70;3.00;;;;;;;;;;4204960;34;20205;-64
2021/11/28 12:39:00;;;;;;;6.20;2.55;;;;;;;;;;4205284;34;20117;-64
2021/11/28 12:44:12;;;;;;;2.83;2.05;;;;;;;;;;4205291;34;20149;-64
2021/11/28 12:46:48;;;;;;;5.32;2.67;;;;;;;;;;4216540;34;20129;-64
2021/11/28 12:49:35;;;;;;;5.05;2.45;;;;;;;;;;4218595;33;20528;-64
2021/11/28 12:52:23;;;;;;;5.57;2.62;;;;;;;;;;4218788;34;20109;-64
2021/11/28 12:55:04;;;;;;;2.72;2.10;;;;;;;;;;4215998;33;20590;-62
2021/11/28 12:57:30;;;;;;;3.53;2.35;;;;;;;;;;4204438;34;20109;-64
2021/11/28 13:00:24;;;;;;;4.95;2.17;;;;;;;;;;4204818;34;20137;-64
2021/11/28 13:02:59;;;;;;;4.15;2.67;;;;;;;;;;4202326;34;20534;-62
2021/11/28 13:05:46;;;;;;;6.28;3.40;;;;;;;;;;4195039;34;20201;-62
2021/11/28 13:08:12;;;;;;;9.75;4.82;;;;;;;;;;4202621;34;20133;-62
2021/11/28 13:10:44;;;;;;;6.20;3.33;;;;;;;;;;4204115;34;20471;-62
2021/11/28 13:13:18;;;;;;;4.78;2.40;;;;;;;;;;4204753;34;20129;-62
2021/11/28 13:15:48;;;;;;;8.60;2.90;;;;;;;;;;4190830;34;20193;-62
2021/11/28 13:18:16;;;;;;;4.47;3.28;;;;;;;;;;4204812;34;20098;-63
2021/11/28 13:20:42;;;;;;;6.05;4.60;;;;;;;;;;4195802;34;20117;-62
2021/11/28 13:23:11;;;;;;;5.78;3.72;;;;;;;;;;4216317;34;20109;-62
2021/11/28 13:25:45;;;;;;;4.68;3.50;;;;;;;;;;4216271;33;20124;-63
2021/11/28 13:28:15;;;;;;;5.62;2.95;;;;;;;;;;4203573;34;20112;-62
2021/11/28 13:30:45;;;;;;;7.40;3.53;;;;;;;;;;4216375;33;20132;-62
2021/11/28 13:33:20;;;;;;;4.25;2.72;;;;;;;;;;4216534;34;20193;-62
2021/11/28 13:36:03;;;;;;;6.03;3.00;;;;;;;;;;4216872;33;20693;-62
2021/11/28 13:38:38;;;;;;;6.55;2.95;;;;;;;;;;4205448;34;20229;-63
2021/11/28 13:41:21;;;;;;;11.55;4.03;;;;;;;;;;4218389;34;20140;-62
2021/11/28 13:43:56;;;;;;;15.80;4.75;;;;;;;;;;4217468;33;20526;-62
2021/11/28 13:46:52;;;;;;;15.07;5.78;;;;;;;;;;4218281;34;20098;-64
2021/11/28 13:49:21;;;;;;;4.45;3.50;;;;;;;;;;4194032;34;20136;-65
2021/11/28 13:51:53;;;;;;;8.60;3.65;;;;;;;;;;4218223;34;20208;-69
2021/11/28 13:54:32;;;;;;;6.80;5.57;;;;;;;;;;4218172;33;20105;-69
2021/11/28 13:57:06;;;;;;;7.50;4.55;;;;;;;;;;4218124;34;20541;-69
2021/11/28 13:59:42;;;;;;;9.07;3.55;;;;;;;;;;4217541;34;20632;-69
2021/11/28 14:02:21;;;;;;;5.03;3.40;;;;;;;;;;4218107;34;20225;-69
2021/11/28 14:04:51;;;;;;;7.45;2.92;;;;;;;;;;4218087;33;20128;-68
2021/11/28 14:07:33;;;;;;;3.60;2.70;;;;;;;;;;4218336;34;20110;-68
2021/11/28 14:10:13;;;;;;;4.75;3.40;;;;;;;;;;4218129;33;20129;-68
2021/11/28 14:12:48;;;;;;;5.85;3.33;;;;;;;;;;4219030;34;20101;-68
2021/11/28 14:15:18;;;;;;;4.55;2.83;;;;;;;;;;4218070;34;20184;-68
2021/11/28 14:18:02;;;;;;;3.70;2.55;;;;;;;;;;4204872;34;20129;-68
2021/11/28 14:20:43;;;;;;;3.65;2.65;;;;;;;;;;4217803;34;20105;-68
2021/11/28 14:23:13;;;;;;;4.60;2.83;;;;;;;;;;4217923;34;20113;-68
2021/11/28 14:25:40;;;;;;;8.38;3.37;;;;;;;;;;4217759;34;20110;-68
2021/11/28 14:28:34;;;;;;;8.65;5.75;;;;;;;;;;4217810;34;20116;-68
2021/11/28 14:31:07;;;;;;;9.25;6.72;;;;;;;;;;4217893;34;20109;-69
2021/11/28 14:33:59;;;;;;;12.02;6.10;;;;;;;;;;4216695;34;20093;-69
2021/11/28 14:36:28;;;;;;;8.80;6.18;;;;;;;;;;4214957;34;20115;-65
2021/11/28 14:38:58;;;;;;;10.43;6.47;;;;;;;;;;4216806;34;20414;-65
2021/11/28 14:41:32;;;;;;;7.53;4.72;;;;;;;;;;4216515;34;20200;-66
2021/11/28 14:44:01;;;;;;;7.80;4.20;;;;;;;;;;4216482;34;20129;-65
2021/11/28 14:46:36;;;;;;;8.40;3.95;;;;;;;;;;4216659;34;20563;-64
2021/11/28 14:49:06;;;;;;;7.15;3.90;;;;;;;;;;4192118;34;20110;-65
2021/11/28 14:51:45;;;;;;;8.45;4.15;;;;;;;;;;4216728;34;20106;-65
2021/11/28 14:54:18;;;;;;;5.55;3.67;;;;;;;;;;4204628;34;20125;-65
2021/11/28 14:56:49;;;;;;;6.43;3.75;;;;;;;;;;4217439;34;20110;-66
2021/11/28 14:59:29;;;;;;;6.07;3.37;;;;;;;;;;4217610;34;20280;-65
2021/11/28 15:02:07;;;;;;;6.53;3.30;;;;;;;;;;4204485;34;20499;-66
2021/11/28 15:04:33;;;;;;;9.25;5.07;;;;;;;;;;4217686;34;20109;-66
2021/11/28 15:07:01;;;;;;;3.22;2.85;;;;;;;;;;4217209;34;20100;-65
2021/11/28 15:09:47;;;;;;;8.30;3.33;;;;;;;;;;4204237;34;20116;-66
2021/11/28 15:12:31;;;;;;;5.50;3.25;;;;;;;;;;4206463;34;20507;-66
2021/11/28 15:14:59;;;;;;;6.12;3.20;;;;;;;;;;4206731;34;20121;-65
2021/11/28 15:17:27;;;;;;;5.20;3.28;;;;;;;;;;4219352;34;20099;-64
2021/11/28 15:20:12;;;;;;;7.68;3.47;;;;;;;;;;4219266;34;20209;-69
2021/11/28 15:22:41;;;;;;;4.80;3.20;;;;;;;;;;4206524;34;20106;-65